createdAt,value
2023-01-29T00:01:31.368Z,10.23
2023-01-29T00:03:57.901Z,11.33
2023-01-29T00:06:24.763Z,10.33
2023-01-29T00:08:51.282Z,9.53
2023-01-29T00:11:18.170Z,10.90
2023-01-29T00:13:44.690Z,9.50
2023-01-29T00:16:11.281Z,10.17
2023-01-29T00:18:40.531Z,10.37
2023-01-29T00:21:09.348Z,9.75
2023-01-29T00:23:35.917Z,9.98
2023-01-29T00:26:02.455Z,9.33
2023-01-29T00:28:28.974Z,9.43
2023-01-29T00:30:55.571Z,10.07
2023-01-29T00:33:22.165Z,10.60
2023-01-29T00:35:50.017Z,9.67
2023-01-29T00:38:16.522Z,9.80
2023-01-29T00:41:01.931Z,9.93
2023-01-29T00:43:47.256Z,9.20
2023-01-29T00:46:13.837Z,9.73
2023-01-29T00:48:40.380Z,9.73
2023-01-29T00:51:08.210Z,9.30
2023-01-29T00:53:34.728Z,9.83
2023-01-29T00:56:01.223Z,8.87
2023-01-29T00:58:34.469Z,10.73
2023-01-29T01:01:02.366Z,8.93
2023-01-29T01:03:29.740Z,10.10
2023-01-29T01:06:03.557Z,9.10
2023-01-29T01:08:50.063Z,9.67
2023-01-29T01:11:16.617Z,8.70
2023-01-29T01:13:43.335Z,9.87
2023-01-29T01:16:10.751Z,9.93
2023-01-29T01:18:38.038Z,8.97
2023-01-29T01:21:05.123Z,10.43
2023-01-29T01:23:33.173Z,9.20
2023-01-29T01:26:00.094Z,10.10
2023-01-29T01:28:26.932Z,10.50
2023-01-29T01:30:53.600Z,9.23
2023-01-29T01:33:20.294Z,9.40
2023-01-29T01:35:46.835Z,9.67
2023-01-29T01:38:13.361Z,9.67
2023-01-29T01:40:45.448Z,9.30
2023-01-29T01:43:12.050Z,9.70
2023-01-29T01:45:38.794Z,9.33
2023-01-29T01:48:07.519Z,10.87
2023-01-29T01:50:38.346Z,9.57
2023-01-29T01:53:07.574Z,12.27
2023-01-29T01:55:37.765Z,10.35
2023-01-29T01:58:09.995Z,9.90
2023-01-29T02:00:37.073Z,9.50
2023-01-29T02:03:23.307Z,9.70
2023-01-29T02:06:09.120Z,9.23
2023-01-29T02:09:00.376Z,9.73
2023-01-29T02:11:27.221Z,8.77
2023-01-29T02:13:55.089Z,10.07
2023-01-29T02:16:22.032Z,10.33
2023-01-29T02:18:49.314Z,9.33
2023-01-29T02:21:33.691Z,9.77
2023-01-29T02:24:26.183Z,9.63
2023-01-29T02:27:09.015Z,8.90
2023-01-29T02:29:51.875Z,9.10
2023-01-29T02:32:28.141Z,11.03
2023-01-29T02:35:24.463Z,9.80
2023-01-29T02:37:58.051Z,9.37
2023-01-29T02:40:31.248Z,9.67
2023-01-29T02:43:08.617Z,9.83
2023-01-29T02:45:46.446Z,9.33
2023-01-29T02:48:17.488Z,9.90
2023-01-29T02:50:49.291Z,9.53
2023-01-29T02:54:08.679Z,9.57
2023-01-29T02:56:40.492Z,10.40
2023-01-29T02:59:11.883Z,11.00
2023-01-29T03:01:46.054Z,10.40
2023-01-29T03:04:22.512Z,8.77
2023-01-29T03:06:54.561Z,10.53
2023-01-29T03:09:26.697Z,10.53
2023-01-29T03:11:59.610Z,10.23
2023-01-29T03:14:52.358Z,10.27
2023-01-29T03:17:23.213Z,10.20
2023-01-29T03:19:50.853Z,9.73
2023-01-29T03:22:21.861Z,9.73
2023-01-29T03:25:11.114Z,10.03
2023-01-29T03:28:02.700Z,10.40
2023-01-29T03:30:50.735Z,9.70
2023-01-29T03:33:23.903Z,8.80
2023-01-29T03:35:59.207Z,10.17
2023-01-29T03:38:29.507Z,10.50
2023-01-29T03:40:59.681Z,11.67
2023-01-29T03:43:35.207Z,10.23
2023-01-29T03:46:08.344Z,10.73
2023-01-29T03:48:40.155Z,10.60
2023-01-29T03:51:17.005Z,10.23
2023-01-29T03:53:50.382Z,11.77
2023-01-29T03:56:32.112Z,10.07
2023-01-29T03:59:02.534Z,9.60
2023-01-29T04:01:35.645Z,9.87
2023-01-29T04:04:08.316Z,10.30
2023-01-29T04:06:37.931Z,11.07
2023-01-29T04:09:07.453Z,10.60
2023-01-29T04:11:38.057Z,10.25
2023-01-29T04:14:07.324Z,9.77
2023-01-29T04:16:37.957Z,13.02
2023-01-29T04:19:05.993Z,10.90
2023-01-29T04:21:32.952Z,14.00
2023-01-29T04:23:59.584Z,10.70
2023-01-29T04:26:44.585Z,11.80
2023-01-29T04:29:22.149Z,9.63
2023-01-29T04:32:00.145Z,10.73
2023-01-29T04:34:29.389Z,9.87
2023-01-29T04:37:04.727Z,10.45
2023-01-29T04:39:40.975Z,9.83
2023-01-29T04:42:14.199Z,10.73
2023-01-29T04:44:49.726Z,10.40
2023-01-29T04:47:24.645Z,10.80
2023-01-29T04:49:59.081Z,10.50
2023-01-29T04:52:34.030Z,10.47
2023-01-29T04:55:05.845Z,10.17
2023-01-29T04:57:37.000Z,10.57
2023-01-29T05:00:10.035Z,10.30
2023-01-29T05:02:39.314Z,10.57
2023-01-29T05:05:09.582Z,10.45
2023-01-29T05:07:39.260Z,9.73
2023-01-29T05:12:34.352Z,10.20
2023-01-29T05:15:03.168Z,10.13
2023-01-29T05:17:29.995Z,10.45
2023-01-29T05:19:56.946Z,10.20
2023-01-29T05:22:26.551Z,9.97
2023-01-29T05:24:53.095Z,12.70
2023-01-29T05:27:41.170Z,10.47
2023-01-29T05:30:09.776Z,10.73
2023-01-29T05:32:36.305Z,9.93
2023-01-29T05:35:02.918Z,12.40
2023-01-29T05:37:30.746Z,10.53
2023-01-29T05:39:57.276Z,11.10
2023-01-29T05:42:24.198Z,10.37
2023-01-29T05:44:50.722Z,10.90
2023-01-29T05:47:19.191Z,10.90
2023-01-29T05:49:45.711Z,11.23
2023-01-29T05:52:12.191Z,11.40
2023-01-29T05:54:40.018Z,10.87
2023-01-29T05:57:06.507Z,10.90
2023-01-29T05:59:33.044Z,10.67
2023-01-29T06:01:59.588Z,11.33
2023-01-29T06:04:26.166Z,10.90
2023-01-29T06:06:52.651Z,11.00
2023-01-29T06:09:19.229Z,10.57
2023-01-29T06:11:47.123Z,10.03
2023-01-29T06:14:13.649Z,11.03
2023-01-29T06:16:40.190Z,10.17
2023-01-29T06:19:06.678Z,10.60
2023-01-29T06:21:33.269Z,10.07
2023-01-29T06:23:59.881Z,9.40
2023-01-29T06:26:26.415Z,10.47
2023-01-29T06:28:54.295Z,9.93
2023-01-29T06:31:36.871Z,10.23
2023-01-29T06:34:04.714Z,9.17
2023-01-29T06:36:31.311Z,10.13
2023-01-29T06:38:57.821Z,11.00
2023-01-29T06:41:25.504Z,11.27
2023-01-29T06:43:53.623Z,9.43
2023-01-29T06:46:20.218Z,10.73
2023-01-29T06:48:46.863Z,9.90
2023-01-29T06:51:13.416Z,9.80
2023-01-29T06:53:40.462Z,9.53
2023-01-29T06:56:07.777Z,12.83
2023-01-29T06:58:37.060Z,9.57
2023-01-29T07:01:06.199Z,9.07
2023-01-29T07:03:32.855Z,12.50
2023-01-29T07:05:59.594Z,10.90
2023-01-29T07:08:26.256Z,10.37
2023-01-29T07:10:52.820Z,9.50
2023-01-29T07:13:19.319Z,10.07
2023-01-29T07:15:46.170Z,10.17
2023-01-29T07:18:14.035Z,10.20
2023-01-29T07:20:41.691Z,10.70
2023-01-29T07:23:10.847Z,9.77
2023-01-29T07:25:37.492Z,9.88
2023-01-29T07:28:04.146Z,10.10
2023-01-29T07:30:30.741Z,9.80
2023-01-29T07:33:01.640Z,11.17
2023-01-29T07:35:29.598Z,11.93
2023-01-29T07:37:56.080Z,8.83
2023-01-29T07:40:22.900Z,10.13
2023-01-29T07:42:49.443Z,9.70
2023-01-29T07:45:15.977Z,10.10
2023-01-29T07:47:42.460Z,9.07
2023-01-29T07:50:10.126Z,10.10
2023-01-29T07:52:37.980Z,9.27
2023-01-29T07:55:05.116Z,10.03
2023-01-29T07:57:31.687Z,10.30
2023-01-29T07:59:58.182Z,10.50
2023-01-29T08:02:24.769Z,10.80
2023-01-29T08:04:51.309Z,10.90
2023-01-29T08:07:17.816Z,10.07
2023-01-29T08:09:48.034Z,10.77
2023-01-29T08:12:14.696Z,18.67
2023-01-29T08:14:41.173Z,11.17
2023-01-29T08:17:07.745Z,10.33
2023-01-29T08:19:34.243Z,15.83
2023-01-29T08:22:00.757Z,10.40
2023-01-29T08:24:36.087Z,12.03
2023-01-29T08:27:15.123Z,12.10
2023-01-29T08:29:41.641Z,10.87
2023-01-29T08:32:10.170Z,18.57
2023-01-29T08:34:36.712Z,11.80
2023-01-29T08:37:03.239Z,16.63
2023-01-29T08:39:29.728Z,13.20
2023-01-29T08:41:56.229Z,15.87
2023-01-29T08:44:24.115Z,18.97
2023-01-29T08:46:50.647Z,18.73
2023-01-29T08:49:17.146Z,18.37
2023-01-29T08:51:43.639Z,17.93
2023-01-29T08:54:10.140Z,20.10
2023-01-29T08:56:36.756Z,13.00
2023-01-29T08:59:03.303Z,13.20
2023-01-29T09:01:31.168Z,12.43
2023-01-29T09:03:57.706Z,13.27
2023-01-29T09:06:24.244Z,13.77
2023-01-29T09:08:50.845Z,12.93
2023-01-29T09:11:17.403Z,12.27
2023-01-29T09:13:43.988Z,12.50
2023-01-29T09:16:10.770Z,12.10
2023-01-29T09:18:38.616Z,11.97
2023-01-29T09:21:05.686Z,11.87
2023-01-29T09:23:32.238Z,11.37
2023-01-29T09:25:59.079Z,12.00
2023-01-29T09:28:26.051Z,12.33
2023-01-29T09:30:52.963Z,12.80
2023-01-29T09:33:19.713Z,11.20
2023-01-29T09:35:47.552Z,10.87
2023-01-29T09:38:14.639Z,12.07
2023-01-29T09:40:51.669Z,18.20
2023-01-29T09:43:20.436Z,12.40
2023-01-29T09:45:55.030Z,11.75
2023-01-29T09:48:26.488Z,11.17
2023-01-29T09:50:58.564Z,11.33
2023-01-29T09:53:31.586Z,12.87
2023-01-29T09:56:02.633Z,14.87
2023-01-29T09:58:32.838Z,12.50
2023-01-29T10:01:08.458Z,15.27
2023-01-29T10:03:50.803Z,12.57
2023-01-29T10:06:39.464Z,13.10
2023-01-29T10:09:41.361Z,12.10
2023-01-29T10:12:25.564Z,11.73
2023-01-29T10:15:03.819Z,11.73
2023-01-29T10:17:49.425Z,12.23
2023-01-29T10:20:30.753Z,13.70
2023-01-29T10:23:06.976Z,12.73
2023-01-29T10:25:39.330Z,11.80
2023-01-29T10:28:15.809Z,11.23
2023-01-29T10:30:48.260Z,13.47
2023-01-29T10:33:19.514Z,11.57
2023-01-29T10:35:50.276Z,12.53
2023-01-29T10:38:28.336Z,11.60
2023-01-29T10:41:04.420Z,15.03
2023-01-29T10:43:38.996Z,13.40
2023-01-29T10:46:19.177Z,12.50
2023-01-29T10:48:56.303Z,11.77
2023-01-29T10:51:40.741Z,11.60
2023-01-29T10:54:31.189Z,12.40
2023-01-29T10:57:09.971Z,12.93
2023-01-29T10:59:54.627Z,13.75
2023-01-29T11:02:22.594Z,12.97
2023-01-29T11:04:49.311Z,11.87
2023-01-29T11:07:18.694Z,12.00
2023-01-29T11:09:57.223Z,10.35
2023-01-29T11:12:30.374Z,11.63
2023-01-29T11:15:01.644Z,11.37
2023-01-29T11:17:28.205Z,11.10
2023-01-29T11:19:58.175Z,11.37
2023-01-29T11:22:26.219Z,10.90
2023-01-29T11:25:10.569Z,10.00
2023-01-29T11:27:43.319Z,10.30
2023-01-29T11:30:16.564Z,9.30
2023-01-29T11:32:43.446Z,11.80
2023-01-29T11:35:21.849Z,9.60
2023-01-29T11:37:48.487Z,9.47
2023-01-29T11:40:40.674Z,10.57
2023-01-29T11:43:19.584Z,10.30
2023-01-29T11:45:47.967Z,11.73
2023-01-29T11:48:16.755Z,12.00
2023-01-29T11:50:45.303Z,9.45
2023-01-29T11:53:33.651Z,11.27
2023-01-29T11:56:05.408Z,11.20
2023-01-29T11:58:35.153Z,8.70
2023-01-29T12:01:02.938Z,19.30
2023-01-29T12:03:35.574Z,11.40
2023-01-29T12:06:07.347Z,11.53
2023-01-29T12:08:37.122Z,11.17
2023-01-29T12:13:40.609Z,11.60
2023-01-29T12:16:17.072Z,9.07
2023-01-29T12:18:49.919Z,9.17
2023-01-29T12:21:24.102Z,10.23
2023-01-29T12:23:57.762Z,10.27
2023-01-29T12:26:32.513Z,9.67
2023-01-29T12:29:16.542Z,10.00
2023-01-29T12:31:50.182Z,10.83
2023-01-29T12:34:23.737Z,9.87
2023-01-29T12:36:56.141Z,9.87
2023-01-29T12:39:23.083Z,9.77
2023-01-29T12:41:57.349Z,9.60
2023-01-29T12:44:30.487Z,10.07
2023-01-29T12:47:01.558Z,11.13
2023-01-29T12:49:33.100Z,12.47
2023-01-29T12:52:07.937Z,10.23
2023-01-29T12:54:39.107Z,12.07
2023-01-29T12:57:19.016Z,7.73
2023-01-29T12:59:50.136Z,8.57
2023-01-29T13:02:30.371Z,11.00
2023-01-29T13:05:01.022Z,9.13
2023-01-29T13:07:32.771Z,10.47
2023-01-29T13:10:07.366Z,9.43
2023-01-29T13:12:37.041Z,10.10
2023-01-29T13:17:36.806Z,10.63
2023-01-29T13:20:10.969Z,8.97
2023-01-29T13:22:40.827Z,8.60
2023-01-29T13:25:15.636Z,7.40
2023-01-29T13:27:45.782Z,9.13
2023-01-29T13:30:24.980Z,8.63
2023-01-29T13:32:54.153Z,8.90
2023-01-29T13:35:23.273Z,10.05
2023-01-29T13:37:52.148Z,10.05
2023-01-29T13:40:24.488Z,10.98
2023-01-29T13:42:54.771Z,10.63
2023-01-29T13:45:23.625Z,14.37
2023-01-29T13:47:52.224Z,11.38
2023-01-29T13:50:24.059Z,11.93
2023-01-29T13:52:56.416Z,11.60
2023-01-29T13:55:31.149Z,10.70
2023-01-29T13:58:00.313Z,10.10
2023-01-29T14:00:48.410Z,9.50
2023-01-29T14:04:02.205Z,10.37
2023-01-29T14:06:52.228Z,9.77
2023-01-29T14:09:53.465Z,10.17
2023-01-29T14:12:40.909Z,9.87
2023-01-29T14:15:21.872Z,9.80
2023-01-29T14:17:59.553Z,10.10
2023-01-29T14:20:45.102Z,9.40
2023-01-29T14:23:23.745Z,9.07
2023-01-29T14:25:50.580Z,9.53
2023-01-29T14:28:22.684Z,11.33
2023-01-29T14:30:51.835Z,9.27
2023-01-29T14:33:26.506Z,9.48
2023-01-29T14:35:56.221Z,10.53
2023-01-29T14:40:49.927Z,8.40
2023-01-29T14:43:21.644Z,9.73
2023-01-29T14:45:49.956Z,9.67
2023-01-29T14:48:36.947Z,8.83
2023-01-29T14:51:10.897Z,9.10
2023-01-29T14:53:54.466Z,11.30
2023-01-29T14:56:27.645Z,10.27
2023-01-29T14:59:00.152Z,8.20
2023-01-29T15:01:32.428Z,9.53
2023-01-29T15:04:03.521Z,10.07
2023-01-29T15:06:38.669Z,10.60
2023-01-29T15:09:12.560Z,9.27
2023-01-29T15:11:48.605Z,9.43
2023-01-29T15:14:25.564Z,9.17
2023-01-29T15:17:02.306Z,9.60
2023-01-29T15:19:34.587Z,7.90
2023-01-29T15:22:12.704Z,8.87
2023-01-29T15:24:42.006Z,8.17
2023-01-29T15:27:13.167Z,8.95
2023-01-29T15:29:41.575Z,9.40
2023-01-29T15:32:16.683Z,9.23
2023-01-29T15:34:44.262Z,8.17
2023-01-29T15:37:25.558Z,8.60
2023-01-29T15:39:53.211Z,9.17
2023-01-29T15:42:25.597Z,7.77
2023-01-29T15:44:54.323Z,9.03
2023-01-29T15:47:25.215Z,9.20
2023-01-29T15:49:52.649Z,8.20
2023-01-29T15:52:22.803Z,9.10
2023-01-29T15:54:49.595Z,8.10
2023-01-29T15:57:23.441Z,9.20
2023-01-29T15:59:52.361Z,8.77
2023-01-29T16:02:27.895Z,8.43
2023-01-29T16:04:55.691Z,9.63
2023-01-29T16:07:22.651Z,9.23
2023-01-29T16:09:50.625Z,8.03
2023-01-29T16:12:17.546Z,9.23
2023-01-29T16:14:45.955Z,8.07
2023-01-29T16:17:25.251Z,8.77
2023-01-29T16:19:58.537Z,8.88
2023-01-29T16:22:26.709Z,8.50
2023-01-29T16:24:54.557Z,9.30
2023-01-29T16:27:21.250Z,8.33
2023-01-29T16:29:47.929Z,9.53
2023-01-29T16:32:16.360Z,8.40
2023-01-29T16:34:48.135Z,8.73
2023-01-29T16:37:22.573Z,9.67
2023-01-29T16:39:52.346Z,9.20
2023-01-29T16:44:51.236Z,8.17
2023-01-29T16:47:25.317Z,7.90
2023-01-29T16:49:54.448Z,8.97
2023-01-29T16:52:24.628Z,9.05
2023-01-29T16:54:51.648Z,8.73
2023-01-29T16:57:21.320Z,10.87
2023-01-29T17:02:22.977Z,8.43
2023-01-29T17:04:53.822Z,8.53
2023-01-29T17:07:22.211Z,8.87
2023-01-29T17:09:51.807Z,9.17
2023-01-29T17:12:21.446Z,9.48
2023-01-29T17:14:58.379Z,8.25
2023-01-29T17:17:29.562Z,8.33
2023-01-29T17:19:57.556Z,8.00
2023-01-29T17:22:24.309Z,8.30
2023-01-29T17:24:51.509Z,8.90
2023-01-29T17:27:20.590Z,8.23
2023-01-29T17:29:47.807Z,9.45
2023-01-29T17:32:14.480Z,10.30
2023-01-29T17:34:41.073Z,8.70
2023-01-29T17:37:13.478Z,9.23
2023-01-29T17:39:40.244Z,7.30
2023-01-29T17:42:12.230Z,13.63
2023-01-29T17:44:38.748Z,8.50
2023-01-29T17:47:05.452Z,10.27
2023-01-29T17:49:38.088Z,10.17
2023-01-29T17:52:05.210Z,11.30
2023-01-29T17:54:33.280Z,10.00
2023-01-29T17:56:59.783Z,9.13
2023-01-29T17:59:29.983Z,10.33
2023-01-29T18:01:56.583Z,11.47
2023-01-29T18:04:23.424Z,10.60
2023-01-29T18:06:51.655Z,10.90
2023-01-29T18:09:22.411Z,10.87
2023-01-29T18:11:51.045Z,10.67
2023-01-29T18:14:17.730Z,11.90
2023-01-29T18:16:45.022Z,10.53
2023-01-29T18:19:14.899Z,9.53
2023-01-29T18:21:41.410Z,9.90
2023-01-29T18:24:08.273Z,10.13
2023-01-29T18:26:35.859Z,9.50
2023-01-29T18:29:04.131Z,10.93
2023-01-29T18:31:30.695Z,9.97
2023-01-29T18:33:57.252Z,10.93
2023-01-29T18:36:24.010Z,10.00
2023-01-29T18:38:50.533Z,9.97
2023-01-29T18:41:17.110Z,10.23
2023-01-29T18:43:44.335Z,9.80
2023-01-29T18:46:12.296Z,9.77
2023-01-29T18:48:40.927Z,9.50
2023-01-29T18:51:08.270Z,9.80
2023-01-29T18:53:34.770Z,12.00
2023-01-29T18:56:06.405Z,10.80
2023-01-29T18:58:36.132Z,9.17
2023-01-29T19:01:08.908Z,9.97
2023-01-29T19:03:37.707Z,8.97
2023-01-29T19:06:07.000Z,9.20
2023-01-29T19:08:33.982Z,10.07
2023-01-29T19:11:02.430Z,10.33
2023-01-29T19:13:29.468Z,9.97
2023-01-29T19:15:55.986Z,10.00
2023-01-29T19:18:23.294Z,9.37
2023-01-29T19:20:51.241Z,9.40
2023-01-29T19:23:17.844Z,9.53
2023-01-29T19:25:44.986Z,9.87
2023-01-29T19:28:11.589Z,9.10
2023-01-29T19:30:38.269Z,10.73
2023-01-29T19:33:05.012Z,9.93
2023-01-29T19:35:32.606Z,9.83
2023-01-29T19:38:01.147Z,8.40
2023-01-29T19:40:27.651Z,9.63
2023-01-29T19:42:55.413Z,9.17
2023-01-29T19:45:37.473Z,9.53
2023-01-29T19:48:13.382Z,8.23
2023-01-29T19:50:39.882Z,9.27
2023-01-29T19:53:07.780Z,10.10
2023-01-29T19:55:34.285Z,8.63
2023-01-29T19:58:00.832Z,8.73
2023-01-29T20:00:27.363Z,8.53
2023-01-29T20:02:53.904Z,9.97
2023-01-29T20:05:20.685Z,9.53
2023-01-29T20:07:47.368Z,10.17
2023-01-29T20:10:17.403Z,8.93
2023-01-29T20:12:45.121Z,9.07
2023-01-29T20:15:11.689Z,9.60
2023-01-29T20:17:38.455Z,8.37
2023-01-29T20:20:06.644Z,8.77
2023-01-29T20:22:33.223Z,9.40
2023-01-29T20:24:59.763Z,9.93
2023-01-29T20:27:27.635Z,8.77
2023-01-29T20:29:54.121Z,9.60
2023-01-29T20:32:20.690Z,9.27
2023-01-29T20:34:51.833Z,7.77
2023-01-29T20:37:19.206Z,8.90
2023-01-29T20:39:45.853Z,9.03
2023-01-29T20:42:12.617Z,8.10
2023-01-29T20:44:40.795Z,8.40
2023-01-29T20:47:07.390Z,9.10
2023-01-29T20:49:34.188Z,8.90
2023-01-29T20:52:00.735Z,6.90
2023-01-29T20:54:29.304Z,9.47
2023-01-29T20:56:55.918Z,10.77
2023-01-29T20:59:23.045Z,9.73
2023-01-29T21:01:50.988Z,10.23
2023-01-29T21:04:17.563Z,8.33
2023-01-29T21:06:44.322Z,8.23
2023-01-29T21:09:10.858Z,8.97
2023-01-29T21:11:37.394Z,9.57
2023-01-29T21:14:04.113Z,8.80
2023-01-29T21:16:30.729Z,8.47
2023-01-29T21:18:58.682Z,8.53
2023-01-29T21:21:26.527Z,7.80
2023-01-29T21:23:53.438Z,8.80
2023-01-29T21:26:20.082Z,8.63
2023-01-29T21:28:46.618Z,8.63
2023-01-29T21:31:17.568Z,9.00
2023-01-29T21:33:44.420Z,8.30
2023-01-29T21:36:12.620Z,9.23
2023-01-29T21:38:39.563Z,7.93
2023-01-29T21:41:08.651Z,8.10
2023-01-29T21:43:35.807Z,8.65
2023-01-29T21:46:11.316Z,7.63
2023-01-29T21:48:39.295Z,8.43
2023-01-29T21:51:06.419Z,8.00
2023-01-29T21:53:34.818Z,8.27
2023-01-29T21:56:02.269Z,8.17
2023-01-29T21:58:29.778Z,8.33
2023-01-29T22:00:56.606Z,7.33
2023-01-29T22:03:38.888Z,8.00
2023-01-29T22:06:06.020Z,7.37
2023-01-29T22:08:33.911Z,7.23
2023-01-29T22:11:05.735Z,7.80
2023-01-29T22:13:32.434Z,7.27
2023-01-29T22:15:58.968Z,7.77
2023-01-29T22:18:25.788Z,7.63
2023-01-29T22:20:52.860Z,7.27
2023-01-29T22:23:19.455Z,7.43
2023-01-29T22:25:47.316Z,8.73
2023-01-29T22:28:14.818Z,7.37
2023-01-29T22:30:41.376Z,7.83
2023-01-29T22:33:08.371Z,7.37
2023-01-29T22:35:34.875Z,7.03
2023-01-29T22:38:01.434Z,7.60
2023-01-29T22:40:27.939Z,8.10
2023-01-29T22:42:55.888Z,7.03
2023-01-29T22:45:22.391Z,7.67
2023-01-29T22:47:48.887Z,8.50
2023-01-29T22:50:15.708Z,8.40
2023-01-29T22:52:42.812Z,8.20
2023-01-29T22:55:10.760Z,8.30
2023-01-29T22:57:37.514Z,9.10
2023-01-29T23:00:09.026Z,7.90
2023-01-29T23:02:35.667Z,7.87
2023-01-29T23:05:02.428Z,8.30
2023-01-29T23:07:28.947Z,8.63
2023-01-29T23:09:55.457Z,7.87
2023-01-29T23:12:21.957Z,8.00
2023-01-29T23:14:48.485Z,8.43
2023-01-29T23:17:16.440Z,7.67
2023-01-29T23:19:42.998Z,7.80
2023-01-29T23:22:09.481Z,8.10
2023-01-29T23:24:36.019Z,8.00
2023-01-29T23:27:14.988Z,7.57
2023-01-29T23:29:42.182Z,7.60
2023-01-29T23:32:09.148Z,8.37
2023-01-29T23:34:37.167Z,8.07
2023-01-29T23:37:04.030Z,7.43
2023-01-29T23:39:30.597Z,7.90
2023-01-29T23:41:57.320Z,7.17
2023-01-29T23:44:23.855Z,7.40
2023-01-29T23:46:50.437Z,7.90
2023-01-29T23:49:17.007Z,7.57
2023-01-29T23:51:45.786Z,8.27
2023-01-29T23:54:13.216Z,7.43
2023-01-29T23:56:39.781Z,6.90
2023-01-29T23:59:06.274Z,7.53
